Time;durP1;ratioP1;P1;durP2;ratioP2;P2;SDS_P1;SDS_P2;PMS_P1;PMS_P2;Temp;Humidity;BMP_temperature;BMP_pressure;BME280_temperature;BME280_humidity;BME280_pressure;Samples;Min_cycle;Max_cycle;Signal;HPM_P1;HPM_P2
2022/04/25 00:00:12;;;;;;;9.77;8.77;;;8.90;72.90;;;;;;942502;149;27940;-73
2022/04/25 00:02:39;;;;;;;10.13;9.23;;;8.80;73.00;;;;;;942518;149;27325;-73
2022/04/25 00:05:05;;;;;;;9.83;9.03;;;8.70;73.10;;;;;;942299;149;27298;-74
2022/04/25 00:07:32;;;;;;;9.87;8.97;;;8.70;73.50;;;;;;942554;149;27314;-73
2022/04/25 00:09:58;;;;;;;9.37;8.57;;;8.70;73.70;;;;;;942898;149;27407;-74
2022/04/25 00:12:25;;;;;;;9.50;8.63;;;8.60;73.90;;;;;;942166;149;27369;-73
2022/04/25 00:14:52;;;;;;;9.77;8.87;;;8.60;74.10;;;;;;942885;149;27438;-74
2022/04/25 00:17:18;;;;;;;10.50;9.60;;;8.60;74.30;;;;;;942523;149;27788;-74
2022/04/25 00:19:45;;;;;;;9.97;9.07;;;8.60;74.70;;;;;;943214;149;27283;-73
2022/04/25 00:22:11;;;;;;;10.03;9.03;;;8.60;75.00;;;;;;942594;149;27474;-74
2022/04/25 00:24:38;;;;;;;10.07;9.07;;;8.60;75.30;;;;;;942369;149;27458;-74
2022/04/25 00:27:05;;;;;;;9.77;8.93;;;8.60;75.70;;;;;;942733;149;27356;-74
2022/04/25 00:29:31;;;;;;;10.60;9.60;;;8.70;76.00;;;;;;941693;149;27315;-74
2022/04/25 00:31:58;;;;;;;10.53;9.53;;;8.80;76.10;;;;;;942081;149;27301;-73
2022/04/25 00:34:24;;;;;;;11.10;10.00;;;8.80;76.30;;;;;;942161;149;27338;-74
2022/04/25 00:36:51;;;;;;;10.90;9.90;;;8.90;76.70;;;;;;942660;149;27356;-74
2022/04/25 00:39:17;;;;;;;10.70;9.70;;;9.00;76.50;;;;;;942556;149;27882;-73
2022/04/25 00:41:44;;;;;;;11.20;10.17;;;9.10;76.70;;;;;;942373;149;27420;-74
2022/04/25 00:44:11;;;;;;;10.37;9.37;;;9.10;76.70;;;;;;942627;149;27444;-73
2022/04/25 00:46:37;;;;;;;10.63;9.63;;;9.20;76.70;;;;;;942635;149;27436;-74
2022/04/25 00:49:04;;;;;;;11.00;9.93;;;9.30;76.80;;;;;;942452;149;27394;-73
2022/04/25 00:51:30;;;;;;;10.60;9.63;;;9.30;76.70;;;;;;942045;149;27459;-74
2022/04/25 00:53:57;;;;;;;10.50;9.60;;;9.40;76.50;;;;;;942458;149;27357;-74
2022/04/25 00:56:24;;;;;;;10.67;9.67;;;9.50;76.50;;;;;;942343;149;27419;-74
2022/04/25 00:58:50;;;;;;;11.17;10.07;;;9.50;76.40;;;;;;941787;149;27266;-74
2022/04/25 01:01:17;;;;;;;10.53;9.53;;;9.60;76.00;;;;;;942483;149;27501;-74
2022/04/25 01:03:43;;;;;;;11.60;10.50;;;9.60;75.70;;;;;;942194;149;27417;-74
2022/04/25 01:06:10;;;;;;;9.67;8.87;;;9.60;75.60;;;;;;942268;149;27464;-74
2022/04/25 01:08:37;;;;;;;11.40;10.20;;;9.60;75.40;;;;;;943047;149;27278;-74
2022/04/25 01:11:03;;;;;;;11.23;10.17;;;9.60;75.40;;;;;;942616;149;27341;-74
2022/04/25 01:13:30;;;;;;;11.30;10.20;;;9.50;75.30;;;;;;941788;149;27365;-74
2022/04/25 01:15:56;;;;;;;11.97;10.87;;;9.50;75.40;;;;;;942257;149;27282;-74
2022/04/25 01:18:23;;;;;;;11.57;10.47;;;9.50;75.40;;;;;;943115;149;27365;-74
2022/04/25 01:20:49;;;;;;;10.83;9.83;;;9.40;75.50;;;;;;942901;149;27361;-73
2022/04/25 01:28:48;;;;;;;9.30;8.53;;;9.30;75.60;;;;;;943044;149;27862;-74
2022/04/25 01:31:14;;;;;;;9.63;8.83;;;9.20;75.60;;;;;;942208;149;27775;-74
2022/04/25 01:33:41;;;;;;;10.47;9.23;;;9.20;75.70;;;;;;942156;149;27267;-73
2022/04/25 01:36:07;;;;;;;10.33;9.37;;;9.10;75.70;;;;;;942372;149;27428;-74
2022/04/25 01:38:34;;;;;;;11.10;10.10;;;9.10;75.70;;;;;;942204;149;27342;-74
2022/04/25 01:41:01;;;;;;;10.43;9.43;;;9.00;75.70;;;;;;942323;149;27416;-73
2022/04/25 01:43:27;;;;;;;10.87;9.83;;;9.00;75.70;;;;;;942310;149;27439;-73
2022/04/25 01:45:54;;;;;;;10.80;9.77;;;8.90;75.70;;;;;;941941;149;27398;-73
2022/04/25 01:48:21;;;;;;;11.67;9.60;;;8.90;75.30;;;;;;942391;149;27307;-73
2022/04/25 01:50:49;;;;;;;9.73;8.93;;;8.80;75.80;;;;;;942308;149;27854;-74
2022/04/25 01:53:15;;;;;;;11.17;10.13;;;8.80;76.00;;;;;;942224;149;27314;-74
2022/04/25 01:55:42;;;;;;;9.90;9.00;;;8.70;76.10;;;;;;944788;148;27313;-74
2022/04/25 01:58:08;;;;;;;11.47;10.37;;;8.60;76.10;;;;;;944282;148;27265;-74
2022/04/25 02:00:34;;;;;;;11.37;10.37;;;8.60;76.30;;;;;;943895;148;27759;-74
2022/04/25 02:03:01;;;;;;;11.00;10.00;;;8.50;76.40;;;;;;944251;148;27407;-73
2022/04/25 02:05:28;;;;;;;13.37;11.70;;;8.50;76.60;;;;;;944063;148;27341;-73
2022/04/25 02:07:54;;;;;;;11.87;10.77;;;8.40;76.70;;;;;;944205;148;27249;-74
2022/04/25 02:10:21;;;;;;;13.10;11.73;;;8.40;76.90;;;;;;944149;148;27313;-74
2022/04/25 02:12:47;;;;;;;11.80;10.63;;;8.40;77.10;;;;;;946102;149;27365;-74
2022/04/25 02:15:14;;;;;;;12.43;11.30;;;8.30;77.20;;;;;;944499;148;27365;-73
2022/04/25 02:17:44;;;;;;;11.97;10.87;;;8.30;77.40;;;;;;939225;150;27424;-74
2022/04/25 02:20:08;;;;;;;12.20;11.03;;;8.30;77.80;;;;;;938256;150;27358;-74
2022/04/25 02:22:35;;;;;;;12.40;11.27;;;8.30;78.00;;;;;;939140;150;27447;-74
2022/04/25 02:25:00;;;;;;;12.97;11.70;;;8.30;78.20;;;;;;939154;149;27330;-74
2022/04/25 02:27:27;;;;;;;13.00;11.80;;;8.30;78.40;;;;;;939187;150;27361;-73
2022/04/25 02:29:57;;;;;;;11.93;10.83;;;8.30;78.60;;;;;;939183;150;28970;-74
2022/04/25 02:32:20;;;;;;;12.33;11.20;;;8.30;78.60;;;;;;939257;150;27291;-74
2022/04/25 02:34:47;;;;;;;11.73;10.73;;;8.30;78.70;;;;;;939424;150;27338;-74
2022/04/25 02:37:15;;;;;;;11.80;10.70;;;8.40;79.00;;;;;;939292;150;27435;-74
2022/04/25 02:39:40;;;;;;;11.20;10.10;;;8.40;79.00;;;;;;939294;150;27372;-73
2022/04/25 02:42:07;;;;;;;10.70;9.80;;;8.40;79.10;;;;;;939093;149;27349;-74
2022/04/25 02:44:33;;;;;;;10.73;9.73;;;8.40;79.00;;;;;;944170;149;27388;-73
2022/04/25 02:47:00;;;;;;;11.20;10.17;;;8.50;79.00;;;;;;931651;150;27367;-74
2022/04/25 02:49:26;;;;;;;10.87;9.97;;;8.50;78.90;;;;;;952261;148;27397;-74
2022/04/25 02:51:53;;;;;;;11.47;10.47;;;8.50;78.80;;;;;;951834;148;27296;-74
2022/04/25 02:54:20;;;;;;;11.10;9.97;;;8.50;78.80;;;;;;952419;148;27678;-74
2022/04/25 02:56:46;;;;;;;10.80;9.80;;;8.50;78.60;;;;;;952449;148;27413;-73
2022/04/25 02:59:13;;;;;;;11.03;10.03;;;8.40;78.60;;;;;;951847;148;27386;-74
2022/04/25 03:01:40;;;;;;;11.23;10.23;;;8.40;78.50;;;;;;935333;150;27427;-74
2022/04/25 03:04:06;;;;;;;10.07;9.17;;;8.40;78.50;;;;;;936829;150;27360;-74
2022/04/25 03:06:32;;;;;;;11.67;10.63;;;8.30;78.30;;;;;;953529;147;27450;-74
2022/04/25 03:08:59;;;;;;;11.00;10.00;;;8.30;78.30;;;;;;934192;151;28406;-74
2022/04/25 03:11:26;;;;;;;12.07;10.97;;;8.20;78.20;;;;;;952089;148;27273;-74
2022/04/25 03:13:55;;;;;;;12.13;10.50;;;8.20;78.30;;;;;;935282;150;27333;-73
2022/04/25 03:16:22;;;;;;;11.47;10.27;;;8.10;78.30;;;;;;953801;147;27321;-74
2022/04/25 03:18:49;;;;;;;11.13;10.13;;;8.10;78.60;;;;;;934108;151;27467;-73
2022/04/25 03:21:15;;;;;;;11.37;10.27;;;8.00;78.70;;;;;;951833;148;27332;-73
2022/04/25 03:23:41;;;;;;;11.30;10.20;;;8.00;78.80;;;;;;952028;148;27384;-74
2022/04/25 03:26:08;;;;;;;11.73;10.63;;;7.90;78.90;;;;;;949668;148;28009;-74
2022/04/25 03:28:34;;;;;;;11.43;10.33;;;7.90;79.10;;;;;;950717;148;27291;-74
2022/04/25 03:31:01;;;;;;;10.50;9.53;;;7.80;79.20;;;;;;950816;148;27877;-74
2022/04/25 03:33:31;;;;;;;11.57;10.47;;;7.80;79.20;;;;;;950434;148;27341;-74
2022/04/25 03:35:54;;;;;;;10.60;9.63;;;7.70;79.20;;;;;;949464;148;27429;-74
2022/04/25 03:38:21;;;;;;;11.43;10.37;;;7.70;79.40;;;;;;950334;148;27393;-74
2022/04/25 03:40:47;;;;;;;11.53;10.43;;;7.60;79.40;;;;;;951162;148;27428;-74
2022/04/25 03:43:15;;;;;;;11.20;10.20;;;7.60;79.60;;;;;;951015;148;27329;-74
2022/04/25 03:45:41;;;;;;;10.93;9.83;;;7.60;79.80;;;;;;942193;149;27752;-74
2022/04/25 03:48:07;;;;;;;11.30;10.20;;;7.60;80.00;;;;;;942504;149;27683;-73
2022/04/25 03:50:34;;;;;;;10.80;9.80;;;7.50;80.30;;;;;;942327;149;27293;-74
2022/04/25 03:53:07;;;;;;;10.63;9.63;;;7.50;80.50;;;;;;942153;149;27442;-74
2022/04/25 03:58:18;;;;;;;11.20;10.10;;;7.60;80.90;;;;;;942193;149;27365;-74
2022/04/25 04:00:45;;;;;;;10.03;9.13;;;7.60;81.20;;;;;;941821;149;27357;-74
2022/04/25 04:03:14;;;;;;;10.13;9.23;;;7.60;81.50;;;;;;941920;149;27486;-73
2022/04/25 04:05:38;;;;;;;11.53;10.40;;;7.70;81.90;;;;;;942133;149;27266;-74
2022/04/25 04:08:04;;;;;;;11.00;10.00;;;7.70;82.10;;;;;;942423;149;27326;-74
2022/04/25 04:10:31;;;;;;;10.50;9.60;;;7.80;82.30;;;;;;942259;149;27369;-74
2022/04/25 04:12:59;;;;;;;10.70;9.70;;;7.80;82.40;;;;;;942518;149;27365;-74
2022/04/25 04:15:24;;;;;;;11.43;10.33;;;7.90;82.60;;;;;;941777;149;27345;-74
2022/04/25 04:17:51;;;;;;;11.90;10.70;;;8.00;82.50;;;;;;942737;149;27905;-74
2022/04/25 04:20:17;;;;;;;12.63;11.43;;;8.10;82.70;;;;;;941957;149;27293;-74
2022/04/25 04:22:44;;;;;;;11.43;10.40;;;8.20;82.60;;;;;;942431;149;27263;-74
2022/04/25 04:25:12;;;;;;;12.43;11.17;;;8.20;82.60;;;;;;942367;149;27462;-74
2022/04/25 04:27:37;;;;;;;13.13;11.87;;;8.30;82.50;;;;;;941624;149;27373;-74
2022/04/25 04:30:05;;;;;;;12.07;10.90;;;8.30;82.50;;;;;;942480;149;27392;-74
2022/04/25 04:32:30;;;;;;;13.33;11.93;;;8.40;82.50;;;;;;941467;149;27393;-74
2022/04/25 04:34:57;;;;;;;13.37;12.17;;;8.40;82.30;;;;;;942388;149;27334;-74
2022/04/25 04:37:26;;;;;;;12.07;10.97;;;8.50;82.40;;;;;;941972;149;27439;-74
2022/04/25 04:40:41;;;;;;;12.83;11.63;;;8.50;82.40;;;;;;942146;149;27454;-74
2022/04/25 04:42:22;;;;;;;14.37;13.03;;;8.60;82.50;;;;;;932701;149;27338;-74
2022/04/25 04:44:49;;;;;;;12.47;11.27;;;8.60;82.60;;;;;;941651;149;27388;-74
2022/04/25 04:47:15;;;;;;;13.33;12.07;;;8.70;82.70;;;;;;942408;149;27306;-74
2022/04/25 04:49:42;;;;;;;12.43;11.23;;;8.70;82.70;;;;;;942131;149;27354;-74
2022/04/25 04:52:08;;;;;;;13.57;12.23;;;8.80;82.80;;;;;;942522;149;27373;-74
2022/04/25 04:54:35;;;;;;;13.73;12.43;;;8.90;82.80;;;;;;942021;149;27262;-74
2022/04/25 04:57:02;;;;;;;12.83;11.63;;;8.90;82.70;;;;;;942585;149;27861;-74
2022/04/25 04:59:28;;;;;;;13.37;12.17;;;9.00;82.80;;;;;;942332;149;27321;-74
2022/04/25 05:01:55;;;;;;;13.10;11.83;;;9.00;82.80;;;;;;945001;148;27837;-74
2022/04/25 05:04:21;;;;;;;14.73;13.30;;;9.10;82.90;;;;;;943624;148;27412;-74
2022/04/25 05:06:48;;;;;;;13.60;12.30;;;9.10;82.80;;;;;;941865;149;27317;-74
2022/04/25 05:09:14;;;;;;;14.13;12.93;;;9.20;82.80;;;;;;941994;149;27329;-74
2022/04/25 05:11:43;;;;;;;13.40;12.10;;;9.20;82.80;;;;;;942089;149;27362;-74
2022/04/25 05:14:09;;;;;;;15.23;13.83;;;9.30;83.10;;;;;;944049;148;27313;-74
2022/04/25 05:16:34;;;;;;;13.60;12.40;;;9.40;83.30;;;;;;942481;149;27342;-74
2022/04/25 05:19:02;;;;;;;14.20;12.80;;;9.40;83.50;;;;;;943067;149;27374;-74
2022/04/25 05:21:27;;;;;;;13.97;12.67;;;9.50;83.70;;;;;;941889;149;27332;-74
2022/04/25 05:23:54;;;;;;;13.50;12.30;;;9.60;83.70;;;;;;942104;149;27411;-73
2022/04/25 05:26:21;;;;;;;14.37;12.97;;;9.70;83.90;;;;;;941885;149;27329;-73
2022/04/25 05:28:47;;;;;;;12.93;11.77;;;9.80;83.90;;;;;;942370;149;27303;-73
2022/04/25 05:31:14;;;;;;;14.57;13.20;;;9.90;84.00;;;;;;942045;149;27354;-74
2022/04/25 05:33:40;;;;;;;13.53;12.23;;;10.10;84.60;;;;;;942593;149;27871;-73
2022/04/25 05:36:07;;;;;;;12.80;11.60;;;10.30;84.70;;;;;;941790;149;27321;-73
2022/04/25 05:38:34;;;;;;;13.83;12.63;;;10.40;84.30;;;;;;942106;149;27421;-73
2022/04/25 05:41:00;;;;;;;14.53;13.03;;;10.60;84.00;;;;;;942526;149;27376;-73
2022/04/25 05:43:27;;;;;;;13.97;12.77;;;10.70;83.60;;;;;;942469;149;27392;-73
2022/04/25 05:45:53;;;;;;;12.83;11.70;;;10.90;83.50;;;;;;934174;149;27389;-73
2022/04/25 05:53:49;;;;;;;13.90;12.43;;;11.40;83.30;;;;;;930681;151;27506;-74
2022/04/25 05:56:16;;;;;;;14.30;12.90;;;11.60;83.20;;;;;;930480;151;27378;-73
2022/04/25 05:58:42;;;;;;;14.00;12.70;;;11.70;82.90;;;;;;930427;151;27350;-73
2022/04/25 06:01:09;;;;;;;14.07;12.77;;;11.90;82.80;;;;;;930376;154;27425;-74
2022/04/25 06:03:36;;;;;;;13.97;12.67;;;12.00;82.60;;;;;;930257;151;27369;-73
2022/04/25 06:06:02;;;;;;;14.20;12.80;;;12.20;82.50;;;;;;930777;151;27354;-73
2022/04/25 06:08:29;;;;;;;15.50;14.10;;;12.40;82.30;;;;;;926111;152;27371;-73
2022/04/25 06:10:55;;;;;;;13.70;12.50;;;12.60;82.50;;;;;;945389;151;27353;-74
2022/04/25 06:13:24;;;;;;;13.70;12.40;;;12.90;83.50;;;;;;930329;154;27317;-73
2022/04/25 06:15:48;;;;;;;13.53;12.33;;;13.20;85.10;;;;;;930286;151;27376;-73
2022/04/25 06:18:15;;;;;;;12.70;11.60;;;13.60;86.60;;;;;;930234;151;27410;-73
2022/04/25 06:20:42;;;;;;;11.78;10.80;;;14.20;86.80;;;;;;945121;149;27411;-74
2022/04/25 06:23:08;;;;;;;11.78;10.68;;;14.90;87.10;;;;;;945362;149;27434;-73
2022/04/25 06:25:37;;;;;;;11.75;10.63;;;15.60;86.20;;;;;;947100;148;27316;-73
2022/04/25 06:28:01;;;;;;;9.55;8.83;;;16.30;84.70;;;;;;945414;149;27317;-74
2022/04/25 06:30:29;;;;;;;10.40;9.45;;;17.00;81.90;;;;;;941750;149;27399;-74
2022/04/25 06:32:55;;;;;;;10.78;9.90;;;17.60;79.20;;;;;;941421;152;27921;-74
2022/04/25 06:35:21;;;;;;;9.78;8.93;;;18.10;76.50;;;;;;940669;149;27334;-73
2022/04/25 06:37:48;;;;;;;11.15;10.15;;;18.50;73.90;;;;;;941202;149;27774;-73
2022/04/25 06:40:14;;;;;;;9.85;9.05;;;18.80;71.50;;;;;;946717;151;27276;-73
2022/04/25 06:42:41;;;;;;;10.53;9.53;;;19.00;69.60;;;;;;938023;153;27339;-73
2022/04/25 06:45:08;;;;;;;11.10;10.18;;;19.10;68.20;;;;;;945372;148;27438;-73
2022/04/25 06:47:34;;;;;;;11.63;10.63;;;19.10;67.00;;;;;;945603;149;27377;-74
2022/04/25 06:50:01;;;;;;;10.53;9.70;;;19.10;66.00;;;;;;945353;151;27456;-73
2022/04/25 06:52:27;;;;;;;9.93;9.15;;;19.00;65.60;;;;;;945361;151;28544;-74
2022/04/25 06:54:54;;;;;;;10.68;9.78;;;18.90;65.30;;;;;;944697;148;27482;-74
2022/04/25 06:57:21;;;;;;;10.55;9.65;;;18.80;65.00;;;;;;945250;149;27253;-74
2022/04/25 06:59:47;;;;;;;11.22;10.23;;;18.60;64.80;;;;;;945238;149;27434;-72
2022/04/25 07:02:15;;;;;;;11.12;10.20;;;18.60;65.00;;;;;;945476;151;27452;-73
2022/04/25 07:04:42;;;;;;;11.00;10.00;;;18.40;65.00;;;;;;944997;149;27424;-74
2022/04/25 07:07:07;;;;;;;11.48;10.48;;;18.40;65.10;;;;;;945394;149;27325;-74
2022/04/25 07:09:33;;;;;;;10.60;9.75;;;18.30;65.10;;;;;;944966;151;27321;-74
2022/04/25 07:12:01;;;;;;;11.28;10.23;;;18.30;65.10;;;;;;945667;151;27386;-74
2022/04/25 07:14:28;;;;;;;11.03;10.08;;;18.30;65.10;;;;;;945428;151;27326;-74
2022/04/25 07:16:54;;;;;;;10.25;9.35;;;18.30;65.00;;;;;;945330;149;27453;-74
2022/04/25 07:19:20;;;;;;;10.98;10.08;;;18.30;64.60;;;;;;945555;149;27344;-73
2022/04/25 07:30:01;;;;;;;12.18;10.88;;;18.00;64.00;;;;;;945854;148;27368;-73
2022/04/25 07:32:27;;;;;;;12.07;11.08;;;17.80;64.00;;;;;;945653;151;27406;-72
2022/04/25 07:34:54;;;;;;;11.75;10.63;;;17.70;64.00;;;;;;945353;148;27372;-73
2022/04/25 07:37:23;;;;;;;11.30;10.30;;;17.60;64.30;;;;;;945255;148;27402;-72
2022/04/25 07:39:47;;;;;;;11.78;10.68;;;17.50;64.40;;;;;;944297;151;27302;-72
2022/04/25 07:42:15;;;;;;;11.38;10.38;;;17.50;64.70;;;;;;945391;151;27309;-73
2022/04/25 07:44:40;;;;;;;11.75;10.63;;;17.40;64.90;;;;;;945131;151;27394;-73
2022/04/25 07:47:07;;;;;;;11.10;10.20;;;17.40;65.00;;;;;;944755;148;27372;-73
2022/04/25 07:49:33;;;;;;;13.20;11.60;;;17.40;65.20;;;;;;944579;149;27583;-72
2022/04/25 07:52:00;;;;;;;10.78;9.88;;;17.40;65.20;;;;;;944344;149;27419;-74
2022/04/25 07:54:27;;;;;;;11.75;10.58;;;17.50;65.10;;;;;;944115;149;27305;-73
2022/04/25 07:56:55;;;;;;;11.28;10.38;;;17.50;65.00;;;;;;943910;148;27353;-74
2022/04/25 07:59:20;;;;;;;11.50;10.55;;;17.50;65.00;;;;;;944304;149;27444;-73
2022/04/25 08:01:46;;;;;;;11.88;10.78;;;17.60;65.00;;;;;;944502;148;27402;-73
2022/04/25 08:04:13;;;;;;;12.47;11.48;;;17.60;64.80;;;;;;944282;149;27453;-73
2022/04/25 08:06:40;;;;;;;12.00;11.00;;;17.60;64.70;;;;;;943831;148;27815;-73
2022/04/25 08:09:06;;;;;;;12.05;11.05;;;17.50;64.60;;;;;;944175;149;27329;-73
2022/04/25 08:11:33;;;;;;;13.20;12.05;;;17.50;64.90;;;;;;943873;149;27377;-73
2022/04/25 08:19:31;;;;;;;11.03;10.05;;;17.60;65.50;;;;;;945112;149;27357;-73
2022/04/25 08:22:00;;;;;;;11.57;10.58;;;17.70;65.60;;;;;;944338;149;27411;-73
2022/04/25 08:24:25;;;;;;;11.70;10.70;;;17.80;65.60;;;;;;943211;149;27360;-72
2022/04/25 08:26:51;;;;;;;11.05;10.15;;;18.00;65.70;;;;;;944192;149;28320;-73
2022/04/25 08:29:18;;;;;;;10.10;9.25;;;18.10;65.80;;;;;;944418;149;27353;-73
2022/04/25 08:31:44;;;;;;;10.75;9.85;;;18.30;65.70;;;;;;944119;149;27415;-72
2022/04/25 08:34:13;;;;;;;11.15;10.18;;;18.60;65.90;;;;;;943889;148;27434;-73
2022/04/25 08:36:38;;;;;;;10.75;9.85;;;18.90;66.00;;;;;;943803;149;27369;-73
2022/04/25 08:39:04;;;;;;;10.43;9.43;;;19.20;65.80;;;;;;943676;149;27365;-73
2022/04/25 08:41:46;;;;;;;10.50;9.63;;;19.60;65.50;;;;;;943913;149;27337;-73
2022/04/25 08:44:12;;;;;;;10.55;9.55;;;20.00;64.90;;;;;;943325;148;27349;-73
2022/04/25 08:46:39;;;;;;;10.50;9.70;;;20.40;64.90;;;;;;943626;148;27374;-73
2022/04/25 08:49:06;;;;;;;9.13;8.30;;;21.00;65.40;;;;;;944178;149;27394;-74
2022/04/25 08:51:37;;;;;;;9.80;8.95;;;21.50;65.90;;;;;;944047;149;27456;-74
2022/04/25 08:54:02;;;;;;;9.50;8.60;;;22.20;64.70;;;;;;943755;149;27886;-73
2022/04/25 08:56:28;;;;;;;9.33;8.53;;;23.00;63.90;;;;;;943528;149;27303;-73
2022/04/25 08:58:56;;;;;;;8.73;7.95;;;23.80;63.80;;;;;;943926;148;27283;-74
2022/04/25 09:01:21;;;;;;;8.65;7.95;;;24.60;62.80;;;;;;943808;148;27322;-74
2022/04/25 09:03:48;;;;;;;8.88;8.08;;;25.40;60.40;;;;;;943788;148;27398;-73
2022/04/25 09:06:15;;;;;;;8.80;8.10;;;26.10;59.20;;;;;;943695;149;27447;-73
2022/04/25 09:08:42;;;;;;;8.20;7.50;;;26.70;58.00;;;;;;944536;149;27340;-73
2022/04/25 09:13:53;;;;;;;7.53;7.03;;;28.00;56.60;;;;;;944197;149;27338;-73
2022/04/25 09:16:19;;;;;;;7.37;6.78;;;28.80;55.20;;;;;;944277;149;27525;-74
2022/04/25 09:18:46;;;;;;;7.08;6.50;;;29.40;54.20;;;;;;943805;148;27461;-73
2022/04/25 09:21:15;;;;;;;6.62;6.12;;;29.90;52.90;;;;;;943613;149;27346;-74
2022/04/25 09:23:42;;;;;;;6.78;6.28;;;30.40;52.10;;;;;;944181;149;27373;-74
2022/04/25 09:26:21;;;;;;;6.53;6.03;;;30.90;51.50;;;;;;943861;149;27321;-73
2022/04/25 09:28:50;;;;;;;6.22;5.75;;;31.30;50.10;;;;;;943333;148;27326;-73
2022/04/25 09:31:16;;;;;;;6.08;5.60;;;31.70;49.50;;;;;;943116;149;27365;-72
2022/04/25 09:33:43;;;;;;;5.30;4.90;;;32.00;48.90;;;;;;943853;149;27502;-74
2022/04/25 09:36:09;;;;;;;6.17;5.67;;;32.30;48.20;;;;;;943897;149;27807;-74
2022/04/25 09:38:36;;;;;;;5.45;4.95;;;32.50;47.30;;;;;;944038;148;27291;-73
2022/04/25 09:41:03;;;;;;;5.33;4.92;;;32.60;46.10;;;;;;943994;149;27357;-74
2022/04/25 09:43:32;;;;;;;5.80;5.33;;;32.60;45.30;;;;;;943998;149;27693;-72
2022/04/25 09:46:11;;;;;;;5.87;5.47;;;32.50;44.20;;;;;;944751;149;27339;-74
2022/04/25 09:48:38;;;;;;;5.10;4.75;;;32.30;43.90;;;;;;944327;151;27378;-73
2022/04/25 09:51:07;;;;;;;4.55;4.25;;;31.90;44.00;;;;;;945211;151;27350;-73
2022/04/25 09:53:54;;;;;;;4.33;4.00;;;31.60;43.40;;;;;;945146;151;27453;-74
2022/04/25 09:56:18;;;;;;;4.40;4.00;;;31.20;43.50;;;;;;944802;149;27385;-73
2022/04/25 09:58:45;;;;;;;4.03;3.72;;;30.90;44.20;;;;;;944774;149;27423;-73
2022/04/25 10:01:14;;;;;;;4.20;3.92;;;30.70;44.40;;;;;;941466;148;27334;-73
2022/04/25 10:03:40;;;;;;;4.05;3.75;;;30.60;44.40;;;;;;944846;149;27496;-74
2022/04/25 10:06:07;;;;;;;4.40;4.10;;;30.50;44.30;;;;;;944896;148;27397;-73
2022/04/25 10:08:36;;;;;;;4.08;3.83;;;30.40;43.80;;;;;;944943;149;27757;-73
2022/04/25 10:11:03;;;;;;;4.30;3.90;;;30.30;43.60;;;;;;945139;149;27354;-74
2022/04/25 10:13:29;;;;;;;4.40;3.95;;;30.20;43.10;;;;;;945033;149;27435;-74
2022/04/25 10:15:56;;;;;;;4.80;4.50;;;30.00;42.70;;;;;;944453;149;27423;-73
2022/04/25 10:18:22;;;;;;;6.47;4.35;;;29.90;42.40;;;;;;945744;149;27442;-72
2022/04/25 10:20:49;;;;;;;5.08;4.67;;;29.60;42.40;;;;;;945065;148;27342;-74
2022/04/25 10:23:15;;;;;;;5.03;4.62;;;29.40;42.30;;;;;;944752;148;27424;-72
2022/04/25 10:25:57;;;;;;;4.90;4.50;;;29.10;42.30;;;;;;945081;148;27307;-72
2022/04/25 10:28:45;;;;;;;4.72;4.42;;;28.80;42.20;;;;;;944469;148;27468;-74
2022/04/25 10:31:11;;;;;;;5.47;4.72;;;28.40;42.10;;;;;;944507;148;27437;-73
2022/04/25 10:33:48;;;;;;;4.83;4.42;;;28.10;42.40;;;;;;943443;148;27279;-73
2022/04/25 10:36:13;;;;;;;4.58;4.28;;;27.70;42.80;;;;;;944483;149;27330;-73
2022/04/25 10:38:49;;;;;;;5.25;4.75;;;27.40;42.50;;;;;;932654;149;27407;-72
2022/04/25 10:44:18;;;;;;;4.40;4.10;;;26.90;43.00;;;;;;945338;148;27444;-74
2022/04/25 10:47:03;;;;;;;4.20;3.90;;;26.70;43.50;;;;;;945467;148;27378;-73
2022/04/25 10:49:46;;;;;;;4.42;4.12;;;26.50;43.40;;;;;;944095;149;27948;-73
2022/04/25 10:52:41;;;;;;;5.20;4.42;;;26.40;43.40;;;;;;943119;149;27439;-72
2022/04/25 10:55:31;;;;;;;4.80;4.40;;;26.20;43.40;;;;;;942598;149;27351;-72
2022/04/25 10:58:03;;;;;;;3.83;3.52;;;26.10;43.60;;;;;;940984;149;27428;-73
2022/04/25 11:00:38;;;;;;;4.03;3.72;;;25.90;43.50;;;;;;943996;148;27356;-72
2022/04/25 11:03:05;;;;;;;3.70;3.45;;;25.80;43.20;;;;;;943852;148;27401;-74
2022/04/25 11:05:31;;;;;;;3.92;3.62;;;25.60;43.20;;;;;;943485;149;27455;-72
2022/04/25 11:08:17;;;;;;;3.90;3.60;;;25.40;43.20;;;;;;944274;149;27324;-72
2022/04/25 11:10:58;;;;;;;3.67;3.37;;;25.20;43.80;;;;;;943588;148;27424;-72
2022/04/25 11:13:26;;;;;;;4.10;3.80;;;25.00;43.30;;;;;;943958;148;27317;-72
2022/04/25 11:15:51;;;;;;;4.00;3.70;;;24.80;43.50;;;;;;944152;149;27287;-73
2022/04/25 11:18:38;;;;;;;3.25;2.95;;;24.60;44.30;;;;;;944232;149;27447;-72
2022/04/25 11:21:08;;;;;;;4.17;3.87;;;24.50;44.00;;;;;;942851;149;27375;-72
2022/04/25 11:23:46;;;;;;;4.15;3.60;;;24.50;44.00;;;;;;943583;149;27357;-73
2022/04/25 11:26:22;;;;;;;4.40;4.10;;;24.40;44.00;;;;;;937258;149;27927;-73
2022/04/25 11:29:04;;;;;;;4.47;4.08;;;24.30;43.90;;;;;;943782;149;27454;-73
2022/04/25 11:31:29;;;;;;;4.35;4.00;;;24.20;44.00;;;;;;943799;148;28324;-73
2022/04/25 11:34:05;;;;;;;4.70;4.33;;;24.20;44.20;;;;;;943337;148;27286;-72
2022/04/25 11:36:23;;;;;;;4.08;3.72;;;24.10;44.30;;;;;;941669;148;27329;-72
2022/04/25 11:41:22;;;;;;;4.42;4.03;;;24.10;44.10;;;;;;928362;149;27365;-72
2022/04/25 11:43:48;;;;;;;4.65;4.33;;;24.10;44.20;;;;;;943916;149;27357;-72
2022/04/25 11:46:15;;;;;;;4.45;4.15;;;24.10;44.30;;;;;;944043;148;27335;-73
2022/04/25 11:48:42;;;;;;;4.30;4.00;;;24.10;44.40;;;;;;944343;149;27451;-72
2022/04/25 11:51:08;;;;;;;4.70;4.30;;;24.00;44.10;;;;;;945204;148;27425;-72
2022/04/25 11:53:34;;;;;;;4.55;4.20;;;24.00;44.00;;;;;;945387;149;27388;-73
2022/04/25 11:56:16;;;;;;;4.50;4.20;;;23.90;43.90;;;;;;944915;149;27458;-72
2022/04/25 11:58:43;;;;;;;5.00;4.60;;;23.80;43.90;;;;;;944797;151;27718;-72
2022/04/25 12:01:10;;;;;;;4.72;4.40;;;23.60;43.80;;;;;;944670;151;27338;-74
2022/04/25 12:03:39;;;;;;;4.12;3.77;;;23.50;43.90;;;;;;937437;150;27365;-72
2022/04/25 12:06:12;;;;;;;4.15;3.85;;;23.40;43.90;;;;;;937509;150;27324;-73
2022/04/25 12:16:54;;;;;;;5.20;4.80;;;22.70;44.40;;;;;;938555;150;27313;-72
2022/04/25 12:19:19;;;;;;;5.12;4.72;;;22.50;44.30;;;;;;938325;152;27464;-73
2022/04/25 12:21:48;;;;;;;4.78;4.37;;;22.30;44.50;;;;;;945780;151;27446;-73
2022/04/25 12:24:18;;;;;;;5.10;4.70;;;22.00;44.80;;;;;;945644;151;27345;-72
2022/04/25 12:26:44;;;;;;;4.87;4.47;;;21.80;45.10;;;;;;945471;149;27849;-72
2022/04/25 12:29:12;;;;;;;4.87;4.53;;;21.70;45.50;;;;;;945580;151;27423;-72
2022/04/25 12:31:38;;;;;;;5.08;4.67;;;21.60;45.90;;;;;;945753;149;27379;-72
2022/04/25 12:34:07;;;;;;;5.20;4.80;;;21.50;46.40;;;;;;945020;149;27345;-73
2022/04/25 12:36:34;;;;;;;5.67;5.17;;;21.40;47.00;;;;;;945704;149;27373;-72
2022/04/25 12:39:00;;;;;;;5.00;4.60;;;21.30;47.50;;;;;;945417;149;27348;-72
2022/04/25 12:41:32;;;;;;;5.53;5.03;;;21.20;48.10;;;;;;944948;151;27325;-72
2022/04/25 12:43:59;;;;;;;5.15;4.75;;;21.10;48.60;;;;;;947422;148;27887;-73
2022/04/25 12:46:35;;;;;;;4.83;4.42;;;21.00;48.30;;;;;;942371;149;27445;-72
2022/04/25 12:49:01;;;;;;;4.75;4.22;;;20.90;49.10;;;;;;929070;151;27440;-73
2022/04/25 12:51:34;;;;;;;5.00;4.53;;;20.80;49.40;;;;;;943770;148;27415;-73
2022/04/25 12:54:00;;;;;;;5.60;5.10;;;20.80;49.60;;;;;;943762;148;27352;-72
2022/04/25 12:56:27;;;;;;;4.78;4.47;;;20.70;49.00;;;;;;944209;148;27321;-73
2022/04/25 12:58:53;;;;;;;4.72;4.17;;;20.70;48.80;;;;;;945050;148;27389;-72
2022/04/25 13:01:35;;;;;;;5.25;4.30;;;20.70;48.70;;;;;;943068;148;27410;-72
2022/04/25 13:04:13;;;;;;;4.10;3.70;;;20.70;48.70;;;;;;944471;148;27470;-72
2022/04/25 13:06:37;;;;;;;4.25;3.85;;;20.80;48.50;;;;;;943047;148;27318;-73
2022/04/25 13:09:04;;;;;;;4.87;4.05;;;20.80;48.50;;;;;;944473;148;27498;-73
2022/04/25 13:11:30;;;;;;;4.08;3.77;;;20.90;48.30;;;;;;943847;148;27444;-71
2022/04/25 13:13:57;;;;;;;3.40;3.20;;;21.00;48.20;;;;;;943587;148;27353;-72
2022/04/25 13:16:24;;;;;;;3.65;3.35;;;21.20;48.20;;;;;;944401;148;27811;-73
2022/04/25 13:18:50;;;;;;;4.47;4.17;;;21.30;48.40;;;;;;943649;148;27282;-73
2022/04/25 13:21:16;;;;;;;3.80;3.50;;;21.40;48.20;;;;;;944189;148;27302;-72
2022/04/25 13:23:43;;;;;;;4.22;3.92;;;21.60;48.30;;;;;;943616;148;27325;-73
2022/04/25 13:26:10;;;;;;;4.10;3.80;;;21.70;48.10;;;;;;943422;148;27367;-73